createdAt,value
2023-04-28T00:00:43.456Z,32.49
2023-04-28T00:03:14.625Z,32.10
2023-04-28T00:05:42.488Z,32.15
2023-04-28T00:08:10.353Z,32.15
2023-04-28T00:10:45.838Z,32.24
2023-04-28T00:13:16.267Z,32.31
2023-04-28T00:15:44.876Z,32.02
2023-04-28T00:18:18.506Z,32.13
2023-04-28T00:20:49.638Z,32.07
2023-04-28T00:23:20.312Z,32.22
2023-04-28T00:25:57.681Z,32.48
2023-04-28T00:28:34.697Z,32.16
2023-04-28T00:31:14.760Z,32.30
2023-04-28T00:33:45.594Z,32.39
2023-04-28T00:36:13.608Z,32.15
2023-04-28T00:38:41.406Z,32.35
2023-04-28T00:41:18.344Z,32.43
2023-04-28T00:43:49.454Z,32.47
2023-04-28T00:46:29.617Z,32.47
2023-04-28T00:49:00.660Z,32.25
2023-04-28T00:51:33.802Z,32.45
2023-04-28T00:54:04.235Z,32.43
2023-04-28T00:56:36.792Z,32.22
2023-04-28T00:59:09.689Z,32.42
2023-04-28T01:01:38.936Z,32.44
2023-04-28T01:04:12.242Z,32.08
2023-04-28T01:06:48.510Z,32.17
2023-04-28T01:09:19.615Z,32.60
2023-04-28T01:11:47.548Z,32.37
2023-04-28T01:14:38.846Z,32.53
2023-04-28T01:17:08.371Z,32.26
2023-04-28T01:19:36.975Z,32.23
2023-04-28T01:22:16.988Z,32.06
2023-04-28T01:24:48.098Z,32.61
2023-04-28T01:27:16.659Z,32.42
2023-04-28T01:29:47.829Z,32.19
2023-04-28T01:32:18.219Z,32.49
2023-04-28T01:34:46.178Z,32.56
2023-04-28T01:37:16.337Z,32.64
2023-04-28T01:39:46.290Z,32.37
2023-04-28T01:42:13.777Z,32.30
2023-04-28T01:44:42.950Z,32.52
2023-04-28T01:47:17.909Z,32.50
2023-04-28T01:49:50.066Z,32.56
2023-04-28T01:52:24.298Z,32.50
2023-04-28T01:54:55.181Z,32.49
2023-04-28T01:57:26.109Z,32.52
2023-04-28T02:00:01.482Z,32.48
2023-04-28T02:02:37.034Z,32.50
2023-04-28T02:05:06.310Z,32.67
2023-04-28T02:07:35.097Z,32.61
2023-04-28T02:10:06.824Z,32.52
2023-04-28T02:12:38.093Z,33.02
2023-04-28T02:15:09.282Z,32.59
2023-04-28T02:17:45.190Z,32.42
2023-04-28T02:20:18.362Z,32.51
2023-04-28T02:22:50.495Z,32.46
2023-04-28T02:25:23.424Z,32.50
2023-04-28T02:27:56.566Z,32.70
2023-04-28T02:30:29.819Z,32.52
2023-04-28T02:32:59.569Z,32.50
2023-04-28T02:35:28.335Z,32.66
2023-04-28T02:37:59.966Z,32.61
2023-04-28T02:40:27.588Z,32.56
2023-04-28T02:43:04.163Z,32.84
2023-04-28T02:45:35.205Z,32.46
2023-04-28T02:48:04.663Z,32.65
2023-04-28T02:50:32.549Z,32.83
2023-04-28T02:53:03.146Z,32.97
2023-04-28T02:55:34.205Z,32.81
2023-04-28T02:58:10.099Z,32.95
2023-04-28T03:00:41.455Z,32.95
2023-04-28T03:03:16.058Z,32.84
2023-04-28T03:05:49.664Z,32.63
2023-04-28T03:08:22.855Z,32.87
2023-04-28T03:10:54.585Z,32.89
2023-04-28T03:13:25.798Z,32.68
2023-04-28T03:15:56.505Z,32.71
2023-04-28T03:18:28.548Z,32.81
2023-04-28T03:20:59.819Z,32.56
2023-04-28T03:23:33.296Z,32.92
2023-04-28T03:26:03.877Z,32.78
2023-04-28T03:28:35.239Z,32.92
2023-04-28T03:31:03.319Z,32.92
2023-04-28T03:33:31.589Z,32.97
2023-04-28T03:36:07.105Z,32.90
2023-04-28T03:38:39.980Z,32.78
2023-04-28T03:41:08.020Z,32.93
2023-04-28T03:43:57.214Z,32.93
2023-04-28T03:46:34.733Z,32.73
2023-04-28T03:49:05.450Z,33.12
2023-04-28T03:51:33.193Z,33.02
2023-04-28T03:54:07.385Z,33.02
2023-04-28T03:56:39.470Z,32.94
2023-04-28T03:59:12.082Z,33.28
2023-04-28T04:01:49.930Z,32.87
2023-04-28T04:04:23.337Z,32.97
2023-04-28T04:06:55.394Z,32.87
2023-04-28T04:09:23.310Z,33.03
2023-04-28T04:11:53.829Z,33.15
2023-04-28T04:14:30.906Z,32.93
2023-04-28T04:17:02.188Z,32.86
2023-04-28T04:19:32.806Z,32.69
2023-04-28T04:22:06.649Z,32.97
2023-04-28T04:24:37.485Z,32.60
2023-04-28T04:27:08.788Z,33.23
2023-04-28T04:29:39.837Z,32.71
2023-04-28T04:32:18.895Z,33.05
2023-04-28T04:34:52.732Z,32.87
2023-04-28T04:37:23.218Z,33.01
2023-04-28T04:40:03.558Z,32.89
2023-04-28T04:42:40.707Z,33.12
2023-04-28T04:45:12.783Z,32.84
2023-04-28T04:47:40.970Z,33.35
2023-04-28T04:50:12.315Z,33.05
2023-04-28T04:52:43.837Z,32.84
2023-04-28T04:55:14.298Z,33.22
2023-04-28T04:57:45.849Z,32.98
2023-04-28T05:00:38.308Z,32.85
2023-04-28T05:03:06.672Z,33.32
2023-04-28T05:05:37.691Z,33.16
2023-04-28T05:08:24.336Z,33.12
2023-04-28T05:10:58.739Z,33.00
2023-04-28T05:13:29.197Z,33.01
2023-04-28T05:16:04.550Z,33.05
2023-04-28T05:18:57.370Z,33.09
2023-04-28T05:21:28.650Z,33.29
2023-04-28T05:24:01.773Z,33.33
2023-04-28T05:26:34.351Z,33.14
2023-04-28T05:29:07.391Z,32.90
2023-04-28T05:31:42.994Z,33.34
2023-04-28T05:34:23.767Z,32.97
2023-04-28T05:36:57.451Z,33.36
2023-04-28T05:39:31.110Z,33.44
2023-04-28T05:42:04.557Z,33.58
2023-04-28T05:44:38.973Z,33.48
2023-04-28T05:47:12.289Z,33.35
2023-04-28T05:49:40.071Z,33.53
2023-04-28T05:52:08.187Z,33.40
2023-04-28T05:54:36.928Z,33.68
2023-04-28T05:57:08.269Z,33.79
2023-04-28T05:59:36.182Z,33.88
2023-04-28T06:02:03.908Z,33.34
2023-04-28T06:04:40.124Z,33.19
2023-04-28T06:07:10.677Z,33.20
2023-04-28T06:09:39.344Z,33.21
2023-04-28T06:12:07.413Z,32.30
2023-04-28T06:14:37.763Z,32.91
2023-04-28T06:17:07.289Z,32.90
2023-04-28T06:19:34.819Z,32.71
2023-04-28T06:22:07.587Z,32.59
2023-04-28T06:24:41.858Z,32.42
2023-04-28T06:27:13.045Z,31.86
2023-04-28T06:29:41.068Z,31.70
2023-04-28T06:32:13.971Z,31.12
2023-04-28T06:34:43.025Z,31.30
2023-04-28T06:37:10.960Z,30.89
2023-04-28T06:39:44.962Z,31.17
2023-04-28T06:42:13.750Z,30.24
2023-04-28T06:44:53.265Z,30.35
2023-04-28T06:47:26.549Z,30.52
2023-04-28T06:50:01.805Z,30.70
2023-04-28T06:52:38.611Z,30.94
2023-04-28T06:55:15.266Z,31.17
2023-04-28T06:57:45.742Z,31.69
2023-04-28T07:00:14.180Z,31.83
2023-04-28T07:02:45.062Z,31.90
2023-04-28T07:05:16.772Z,32.36
2023-04-28T07:07:46.409Z,32.29
2023-04-28T07:10:19.319Z,32.32
2023-04-28T07:12:52.433Z,32.73
2023-04-28T07:15:20.532Z,32.65
2023-04-28T07:17:53.441Z,32.73
2023-04-28T07:20:24.429Z,32.55
2023-04-28T07:23:08.032Z,32.87
2023-04-28T07:25:41.684Z,33.22
2023-04-28T07:28:14.577Z,32.92
2023-04-28T07:30:48.024Z,33.28
2023-04-28T07:33:17.905Z,33.42
2023-04-28T07:35:49.616Z,33.15
2023-04-28T07:38:20.672Z,33.77
2023-04-28T07:40:53.738Z,33.33
2023-04-28T07:43:27.639Z,33.92
2023-04-28T07:45:59.231Z,33.58
2023-04-28T07:48:27.470Z,33.89
2023-04-28T07:50:58.320Z,34.02
2023-04-28T07:53:29.181Z,33.84
2023-04-28T07:55:59.789Z,33.72
2023-04-28T07:58:33.290Z,34.09
2023-04-28T08:01:04.881Z,34.33
2023-04-28T08:03:35.384Z,34.27
2023-04-28T08:06:05.958Z,34.18
2023-04-28T08:08:37.032Z,34.46
2023-04-28T08:11:14.353Z,34.40
2023-04-28T08:13:49.765Z,33.81
2023-04-28T08:16:23.653Z,32.96
2023-04-28T08:18:52.737Z,32.05
2023-04-28T08:21:27.133Z,33.17
2023-04-28T08:23:55.320Z,32.39
2023-04-28T08:26:26.264Z,32.33
2023-04-28T08:28:54.195Z,32.51
2023-04-28T08:31:25.436Z,32.63
2023-04-28T08:33:58.373Z,32.20
2023-04-28T08:36:32.679Z,32.19
2023-04-28T08:39:13.038Z,32.63
2023-04-28T08:41:46.943Z,32.40
2023-04-28T08:44:15.606Z,32.81
2023-04-28T08:46:49.114Z,33.24
2023-04-28T08:49:20.752Z,32.88
2023-04-28T08:51:59.668Z,33.14
2023-04-28T08:54:34.342Z,32.46
2023-04-28T08:57:09.741Z,31.88
2023-04-28T08:59:43.626Z,31.43
2023-04-28T09:02:17.307Z,31.55
2023-04-28T09:04:48.621Z,31.44
2023-04-28T09:07:21.280Z,31.64
2023-04-28T09:10:27.754Z,31.64
2023-04-28T09:12:56.906Z,31.41
2023-04-28T09:15:41.052Z,31.27
2023-04-28T09:18:18.318Z,31.33
2023-04-28T09:20:49.160Z,31.23
2023-04-28T09:23:27.994Z,30.85
2023-04-28T09:26:06.733Z,30.36
2023-04-28T09:28:39.678Z,30.19
2023-04-28T09:31:29.139Z,30.63
2023-04-28T09:34:03.251Z,30.60
2023-04-28T09:36:31.074Z,30.52
2023-04-28T09:39:07.806Z,30.71
2023-04-28T09:41:47.519Z,31.05
2023-04-28T09:44:24.473Z,30.99
2023-04-28T09:46:52.482Z,30.86
2023-04-28T09:49:23.490Z,31.01
2023-04-28T09:51:55.786Z,31.58
2023-04-28T09:54:29.159Z,30.98
2023-04-28T09:57:00.177Z,31.09
2023-04-28T09:59:33.399Z,31.07
2023-04-28T10:02:22.509Z,31.39
2023-04-28T10:04:59.396Z,31.49
2023-04-28T10:07:39.394Z,31.23
2023-04-28T10:10:17.622Z,31.42
2023-04-28T10:12:48.977Z,31.36
2023-04-28T10:15:23.480Z,31.04
2023-04-28T10:18:00.298Z,31.21
2023-04-28T10:20:31.095Z,30.84
2023-04-28T10:23:25.839Z,30.89
2023-04-28T10:26:00.428Z,30.77
2023-04-28T10:28:34.948Z,30.46
2023-04-28T10:31:21.282Z,30.20
2023-04-28T10:33:52.615Z,29.96
2023-04-28T10:36:54.737Z,29.72
2023-04-28T10:39:36.294Z,29.12
2023-04-28T10:42:45.069Z,29.07
2023-04-28T10:45:56.420Z,28.94
2023-04-28T10:48:34.336Z,29.01
2023-04-28T10:51:14.249Z,28.95
2023-04-28T10:53:51.319Z,28.93
2023-04-28T10:56:25.606Z,29.23
2023-04-28T10:58:56.374Z,29.48
2023-04-28T11:01:42.606Z,29.26
2023-04-28T11:04:21.977Z,29.71
2023-04-28T11:07:17.672Z,29.40
2023-04-28T11:10:01.470Z,29.50
2023-04-28T11:12:37.140Z,29.47
2023-04-28T11:15:24.454Z,29.50
2023-04-28T11:18:07.750Z,29.46
2023-04-28T11:20:41.281Z,29.29
2023-04-28T11:23:17.293Z,29.59
2023-04-28T11:25:59.753Z,29.76
2023-04-28T11:28:28.216Z,29.39
2023-04-28T11:31:14.836Z,29.62
2023-04-28T11:33:58.856Z,29.47
2023-04-28T11:36:36.309Z,29.20
2023-04-28T11:39:08.409Z,29.59
2023-04-28T11:41:43.989Z,29.49
2023-04-28T11:44:18.610Z,29.85
2023-04-28T11:47:16.535Z,29.62
2023-04-28T11:49:49.961Z,29.22
2023-04-28T11:52:18.583Z,29.50
2023-04-28T11:54:59.267Z,25.01
2023-04-28T11:57:29.525Z,26.50
2023-04-28T12:00:21.880Z,25.42
2023-04-28T12:02:53.290Z,24.72
2023-04-28T12:05:22.559Z,24.54
2023-04-28T12:07:53.591Z,24.88
2023-04-28T12:10:24.351Z,24.64
2023-04-28T12:12:57.562Z,24.95
2023-04-28T12:15:41.419Z,24.85
2023-04-28T12:18:16.957Z,24.71
2023-04-28T12:20:49.875Z,25.08
2023-04-28T12:23:32.504Z,24.68
2023-04-28T12:26:03.216Z,24.52
2023-04-28T12:28:43.748Z,25.01
2023-04-28T12:31:11.895Z,24.54
2023-04-28T12:33:40.857Z,23.95
2023-04-28T12:36:16.802Z,23.97
2023-04-28T12:38:51.436Z,24.79
2023-04-28T12:41:27.360Z,24.56
2023-04-28T12:44:04.463Z,24.43
2023-04-28T12:46:40.734Z,24.59
2023-04-28T12:49:16.787Z,24.79
2023-04-28T12:51:50.471Z,24.80
2023-04-28T12:54:18.692Z,25.92
2023-04-28T12:56:46.961Z,24.78
2023-04-28T12:59:24.001Z,25.51
2023-04-28T13:02:01.003Z,25.47
2023-04-28T13:04:32.834Z,25.69
2023-04-28T13:07:07.400Z,25.52
2023-04-28T13:09:40.317Z,26.51
2023-04-28T13:12:17.614Z,26.04
2023-04-28T13:14:48.465Z,26.90
2023-04-28T13:17:19.562Z,27.32
2023-04-28T13:19:53.012Z,27.41
2023-04-28T13:22:29.240Z,26.67
2023-04-28T13:25:05.890Z,26.42
2023-04-28T13:27:33.873Z,26.39
2023-04-28T13:30:08.950Z,26.52
2023-04-28T13:32:40.742Z,27.05
2023-04-28T13:35:15.152Z,26.80
2023-04-28T13:37:56.544Z,27.27
2023-04-28T13:40:26.829Z,27.39
2023-04-28T13:43:00.486Z,27.48
2023-04-28T13:45:31.721Z,27.60
2023-04-28T13:48:03.521Z,27.43
2023-04-28T13:50:31.815Z,27.70
2023-04-28T13:53:08.592Z,27.60
2023-04-28T13:55:48.840Z,27.73
2023-04-28T13:58:26.383Z,27.56
2023-04-28T14:00:57.808Z,27.86
2023-04-28T14:03:26.825Z,27.87
2023-04-28T14:06:00.579Z,28.08
2023-04-28T14:08:34.102Z,27.80
2023-04-28T14:11:08.257Z,27.91
2023-04-28T14:13:36.740Z,28.11
2023-04-28T14:16:10.880Z,27.77
2023-04-28T14:18:39.708Z,28.00
2023-04-28T14:21:12.294Z,28.17
2023-04-28T14:23:40.560Z,28.48
2023-04-28T14:26:09.174Z,28.79
2023-04-28T14:28:42.936Z,28.53
2023-04-28T14:31:14.115Z,28.48
2023-04-28T14:33:42.803Z,28.11
2023-04-28T14:36:13.581Z,28.92
2023-04-28T14:38:43.934Z,28.49
2023-04-28T14:41:18.706Z,28.35
2023-04-28T14:43:49.958Z,28.62
2023-04-28T14:46:24.270Z,28.65
2023-04-28T14:48:58.661Z,28.59
2023-04-28T14:51:30.152Z,28.16
2023-04-28T14:54:02.360Z,28.33
2023-04-28T14:56:31.611Z,28.14
2023-04-28T14:59:03.813Z,28.00
2023-04-28T15:01:31.483Z,28.19
2023-04-28T15:04:05.129Z,28.69
2023-04-28T15:06:36.219Z,28.63
2023-04-28T15:09:07.180Z,28.33
2023-04-28T15:11:37.433Z,28.71
2023-04-28T15:14:06.586Z,28.09
2023-04-28T15:16:39.469Z,28.18
2023-04-28T15:19:10.215Z,28.48
2023-04-28T15:21:46.762Z,28.67
2023-04-28T15:24:25.190Z,27.46
2023-04-28T15:26:56.620Z,27.11
2023-04-28T15:29:27.842Z,26.70
2023-04-28T15:31:59.887Z,26.78
2023-04-28T15:34:33.611Z,26.57
2023-04-28T15:37:27.202Z,26.89
2023-04-28T15:40:22.144Z,26.82
2023-04-28T15:42:56.500Z,26.69
2023-04-28T15:45:36.025Z,27.83
2023-04-28T15:48:12.235Z,27.99
2023-04-28T15:50:42.887Z,28.32
2023-04-28T15:53:14.221Z,28.29
2023-04-28T15:55:48.065Z,28.10
2023-04-28T15:58:25.311Z,27.28
2023-04-28T16:00:59.777Z,27.86
2023-04-28T16:03:27.886Z,27.76
2023-04-28T16:06:04.496Z,27.86
2023-04-28T16:08:33.284Z,27.74
2023-04-28T16:11:11.954Z,28.06
2023-04-28T16:13:45.947Z,28.72
2023-04-28T16:16:13.651Z,28.81
2023-04-28T16:18:46.392Z,29.02
2023-04-28T16:21:17.619Z,29.02
2023-04-28T16:23:45.673Z,28.52
2023-04-28T16:26:16.425Z,29.02
2023-04-28T16:28:44.454Z,28.77
2023-04-28T16:31:17.613Z,29.37
2023-04-28T16:33:52.965Z,29.47
2023-04-28T16:36:21.709Z,29.19
2023-04-28T16:38:52.470Z,28.97
2023-04-28T16:41:20.207Z,29.42
2023-04-28T16:43:53.305Z,29.09
2023-04-28T16:46:21.133Z,29.33
2023-04-28T16:48:56.844Z,29.04
2023-04-28T16:51:24.391Z,29.10
2023-04-28T16:53:59.822Z,29.14
2023-04-28T16:56:28.389Z,29.33
2023-04-28T16:58:58.664Z,29.22
2023-04-28T17:01:28.490Z,29.59
2023-04-28T17:03:56.777Z,29.33
2023-04-28T17:06:28.011Z,29.45
2023-04-28T17:08:55.440Z,29.46
2023-04-28T17:11:25.026Z,29.77
2023-04-28T17:13:52.323Z,29.81
2023-04-28T17:16:20.161Z,29.90
2023-04-28T17:18:47.590Z,29.87
2023-04-28T17:21:15.813Z,29.78
2023-04-28T17:23:48.364Z,29.53
2023-04-28T17:26:16.959Z,29.93
2023-04-28T17:28:44.654Z,29.78
2023-04-28T17:31:13.452Z,29.73
2023-04-28T17:33:41.002Z,29.70
2023-04-28T17:36:13.939Z,29.88
2023-04-28T17:38:43.928Z,29.75
2023-04-28T17:41:15.190Z,29.66
2023-04-28T17:43:48.214Z,30.15
2023-04-28T17:46:17.198Z,30.26
2023-04-28T17:48:47.038Z,29.99
2023-04-28T17:51:15.498Z,30.31
2023-04-28T17:53:48.639Z,30.00
2023-04-28T17:56:19.655Z,30.09
2023-04-28T17:58:47.717Z,30.38
2023-04-28T18:01:18.591Z,30.33
2023-04-28T18:03:46.280Z,30.11
2023-04-28T18:06:22.292Z,30.03
2023-04-28T18:08:57.035Z,30.03
2023-04-28T18:11:31.826Z,30.49
2023-04-28T18:14:00.309Z,30.36
2023-04-28T18:16:27.841Z,30.21
2023-04-28T18:18:58.260Z,30.61
2023-04-28T18:21:25.883Z,30.58
2023-04-28T18:23:53.588Z,30.20
2023-04-28T18:26:26.554Z,30.74
2023-04-28T18:28:53.845Z,30.48
2023-04-28T18:31:24.528Z,30.68
2023-04-28T18:33:52.286Z,30.64
2023-04-28T18:36:22.120Z,30.32
2023-04-28T18:38:56.134Z,30.55
2023-04-28T18:41:31.781Z,30.96
2023-04-28T18:44:02.736Z,30.93
2023-04-28T18:46:32.687Z,30.82
2023-04-28T18:49:02.539Z,30.82
2023-04-28T18:51:29.890Z,30.64
2023-04-28T18:53:57.306Z,31.02
2023-04-28T18:56:36.045Z,30.67
2023-04-28T18:59:09.541Z,30.91
2023-04-28T19:01:38.065Z,30.74
2023-04-28T19:04:06.550Z,31.19
2023-04-28T19:06:36.231Z,30.93
2023-04-28T19:09:04.943Z,30.82
2023-04-28T19:11:35.728Z,30.80
2023-04-28T19:14:03.247Z,31.17
2023-04-28T19:16:33.846Z,30.80
2023-04-28T19:19:03.682Z,30.70
2023-04-28T19:21:34.538Z,30.98
2023-04-28T19:24:05.242Z,30.98
2023-04-28T19:26:32.825Z,31.10
2023-04-28T19:29:03.428Z,31.40
2023-04-28T19:31:31.263Z,31.00
2023-04-28T19:34:02.532Z,31.45
2023-04-28T19:36:33.195Z,31.25
2023-04-28T19:39:08.385Z,31.00
2023-04-28T19:41:36.706Z,31.11
2023-04-28T19:44:07.167Z,31.44
2023-04-28T19:46:35.965Z,31.04
2023-04-28T19:49:03.666Z,30.87
2023-04-28T19:51:32.552Z,31.30
2023-04-28T19:53:59.862Z,31.40
2023-04-28T19:56:27.944Z,31.32
2023-04-28T19:58:59.154Z,31.11
2023-04-28T20:01:27.003Z,31.34
2023-04-28T20:03:54.888Z,30.99
2023-04-28T20:06:22.503Z,31.27
2023-04-28T20:08:52.224Z,31.58
2023-04-28T20:11:25.675Z,31.15
2023-04-28T20:13:52.950Z,31.62
2023-04-28T20:16:24.848Z,31.52
2023-04-28T20:19:02.888Z,31.02
2023-04-28T20:21:32.791Z,31.35
2023-04-28T20:24:00.178Z,31.10
2023-04-28T20:26:33.247Z,31.15
2023-04-28T20:29:03.961Z,31.33
2023-04-28T20:31:32.058Z,31.11
2023-04-28T20:34:00.662Z,31.10
2023-04-28T20:36:33.675Z,31.65
2023-04-28T20:39:07.663Z,31.24
2023-04-28T20:41:38.927Z,31.27
2023-04-28T20:44:08.773Z,31.60
2023-04-28T20:46:39.887Z,31.48
2023-04-28T20:49:11.047Z,31.52
2023-04-28T20:51:45.444Z,31.78
2023-04-28T20:54:14.517Z,31.77
2023-04-28T20:56:46.193Z,31.38
2023-04-28T20:59:13.720Z,31.59
2023-04-28T21:01:41.310Z,31.58
2023-04-28T21:04:12.570Z,31.44
2023-04-28T21:06:53.604Z,31.84
2023-04-28T21:09:21.341Z,32.00
2023-04-28T21:11:52.785Z,31.86
2023-04-28T21:14:20.390Z,31.23
2023-04-28T21:16:47.973Z,31.48
2023-04-28T21:19:18.556Z,31.63
2023-04-28T21:21:45.985Z,31.57
2023-04-28T21:24:18.078Z,31.70
2023-04-28T21:26:45.513Z,31.77
2023-04-28T21:29:13.556Z,31.96
2023-04-28T21:31:45.845Z,32.06
2023-04-28T21:34:13.457Z,31.71
2023-04-28T21:36:41.117Z,31.95
2023-04-28T21:39:11.211Z,32.16
2023-04-28T21:41:41.396Z,31.75
2023-04-28T21:44:13.514Z,32.11
2023-04-28T21:46:44.011Z,31.86
2023-04-28T21:49:14.490Z,32.14
2023-04-28T21:51:45.823Z,31.89
2023-04-28T21:54:14.431Z,31.91
2023-04-28T21:56:47.160Z,32.27
2023-04-28T21:59:17.987Z,32.11
2023-04-28T22:01:48.487Z,31.84
2023-04-28T22:04:16.838Z,31.89
2023-04-28T22:06:47.739Z,32.11
2023-04-28T22:09:15.408Z,32.19
2023-04-28T22:11:42.782Z,32.25
2023-04-28T22:14:21.590Z,32.03
2023-04-28T22:17:00.084Z,32.04
2023-04-28T22:19:28.115Z,32.25
2023-04-28T22:21:58.415Z,31.96
2023-04-28T22:24:29.176Z,32.16
2023-04-28T22:26:59.729Z,32.25
2023-04-28T22:29:28.609Z,32.09
2023-04-28T22:31:58.832Z,32.14
2023-04-28T22:34:26.551Z,32.27
2023-04-28T22:36:54.265Z,32.35
2023-04-28T22:39:25.184Z,32.41
2023-04-28T22:41:55.922Z,32.58
2023-04-28T22:44:29.279Z,31.86
2023-04-28T22:46:59.488Z,32.19
2023-04-28T22:49:30.584Z,31.93
2023-04-28T22:51:58.675Z,32.45
2023-04-28T22:54:28.658Z,32.10
2023-04-28T22:56:59.245Z,32.53
2023-04-28T22:59:29.752Z,32.42
2023-04-28T23:02:00.320Z,32.48
2023-04-28T23:04:28.113Z,32.47
2023-04-28T23:07:00.962Z,32.89
2023-04-28T23:09:35.946Z,32.64
2023-04-28T23:12:04.213Z,32.84
2023-04-28T23:14:34.882Z,33.17
2023-04-28T23:17:05.094Z,32.77
2023-04-28T23:19:39.266Z,33.17
2023-04-28T23:22:10.102Z,32.91
2023-04-28T23:24:40.134Z,33.16
2023-04-28T23:27:09.785Z,33.30
2023-04-28T23:29:39.697Z,33.22
2023-04-28T23:32:07.450Z,33.45
2023-04-28T23:34:38.295Z,33.39
2023-04-28T23:37:12.872Z,33.43
2023-04-28T23:39:42.596Z,33.59
2023-04-28T23:42:13.265Z,33.35
2023-04-28T23:44:45.923Z,33.64
2023-04-28T23:47:16.118Z,33.43
2023-04-28T23:49:45.802Z,33.25
2023-04-28T23:52:13.356Z,33.67
2023-04-28T23:54:40.691Z,33.45
2023-04-28T23:57:10.811Z,33.41
2023-04-28T23:59:45.954Z,33.35
